gordon.dewis.ca - Random musings from Gordon

Subscribe

Monday is going to suck

November 29, 2009 @ 21:52 By: gordon Category: Weather

TAF CYOW 300238Z 3003/3024 04005KT 6SM -RA BR OVC015
      TEMPO 3003/3007 3SM -RA BR BKN006 OVC010
     FM300700 02004KT P6SM -RA OVC020
      TEMPO 3007/3009 5SM -RASN BR OVC008
     FM300900 01008KT 4SM -SN BR OVC020
      TEMPO 3009/3012 2SM -SN OVC008
     FM301200 33005KT P6SM OVC040
      TEMPO 3012/3015 4SM -SHSN OVC020
     FM301800 29010KT P6SM BKN030
      RMK NXT FCST BY 300600Z

Looks like there’s going to be some snow tomorrow. Ick.

2 Responses to “Monday is going to suck”


  1. Grace says:

    Looking forward to Christmas — at least the snow means that the holidays are almost here! Can’t wait to see you guys 🙂


Trackbacks/Pingbacks

  1. gordon.dewis.ca | Our annual dose of sucky weather (Part 1 of n) (November 25, 2010 @ 17:29)

Leave a Reply

*